createdAt,value
2022-11-09T00:00:17.119Z,1.95
2022-11-09T00:05:20.767Z,2.50
2022-11-09T00:10:24.414Z,2.17
2022-11-09T00:15:29.696Z,3.20
2022-11-09T00:20:33.738Z,2.60
2022-11-09T00:25:37.417Z,7.07
2022-11-09T00:30:43.018Z,2.72
2022-11-09T00:35:46.711Z,2.15
2022-11-09T00:40:50.542Z,2.53
2022-11-09T00:45:55.592Z,2.03
2022-11-09T00:50:59.597Z,3.45
2022-11-09T00:56:05.996Z,5.15
2022-11-09T01:01:13.955Z,5.68
2022-11-09T01:06:20.281Z,5.00
2022-11-09T01:11:24.852Z,4.60
2022-11-09T01:16:30.396Z,5.03
2022-11-09T01:21:34.227Z,4.03
2022-11-09T01:26:38.277Z,3.40
2022-11-09T01:31:43.302Z,2.90
2022-11-09T01:36:47.030Z,3.30
2022-11-09T01:41:50.710Z,2.60
2022-11-09T01:46:58.084Z,2.53
2022-11-09T01:52:06.557Z,2.75
2022-11-09T01:57:16.958Z,2.50
2022-11-09T02:02:22.360Z,3.22
2022-11-09T02:07:26.671Z,2.47
2022-11-09T02:12:32.850Z,2.37
2022-11-09T02:17:38.025Z,2.28
2022-11-09T02:22:43.576Z,2.00
2022-11-09T02:27:47.570Z,2.47
2022-11-09T02:32:51.314Z,2.30
2022-11-09T02:37:56.928Z,2.40
2022-11-09T02:43:01.815Z,2.20
2022-11-09T02:48:06.339Z,2.47
2022-11-09T02:53:13.006Z,1.95
2022-11-09T02:58:17.801Z,1.77
2022-11-09T03:03:21.887Z,2.00
2022-11-09T03:08:28.492Z,3.08
2022-11-09T03:13:32.590Z,2.67
2022-11-09T03:18:36.760Z,2.35
2022-11-09T03:23:42.092Z,1.77
2022-11-09T03:28:45.846Z,2.03
2022-11-09T03:33:49.750Z,2.00
2022-11-09T03:38:54.873Z,2.35
2022-11-09T03:43:58.787Z,2.67
2022-11-09T03:49:02.617Z,2.15
2022-11-09T03:54:07.963Z,2.45
2022-11-09T03:59:11.647Z,2.78
2022-11-09T04:04:15.335Z,2.03
2022-11-09T04:09:20.454Z,2.30
2022-11-09T04:14:24.235Z,2.75
2022-11-09T04:19:27.933Z,2.83
2022-11-09T04:24:33.038Z,3.05
2022-11-09T04:29:37.691Z,3.58
2022-11-09T04:34:42.186Z,3.58
2022-11-09T04:39:47.199Z,2.90
2022-11-09T04:44:50.887Z,3.67
2022-11-09T04:49:54.532Z,3.28
2022-11-09T04:54:59.587Z,3.97
2022-11-09T05:00:03.652Z,3.58
2022-11-09T05:05:08.473Z,3.05
2022-11-09T05:10:13.582Z,4.43
2022-11-09T05:15:17.343Z,3.83
2022-11-09T05:20:21.403Z,4.18
2022-11-09T05:25:26.473Z,3.40
2022-11-09T05:30:30.331Z,3.42
2022-11-09T05:35:34.194Z,4.00
2022-11-09T05:40:39.203Z,3.72
2022-11-09T05:45:44.063Z,3.92
2022-11-09T05:50:48.226Z,4.05
2022-11-09T05:55:53.901Z,3.55
2022-11-09T06:00:59.789Z,3.50
2022-11-09T06:06:08.336Z,4.07
2022-11-09T06:11:22.817Z,4.00
2022-11-09T06:16:27.433Z,3.78
2022-11-09T06:21:31.144Z,3.95
2022-11-09T06:26:36.519Z,3.30
2022-11-09T06:31:40.357Z,3.35
2022-11-09T06:36:44.787Z,3.10
2022-11-09T06:41:49.888Z,3.58
2022-11-09T06:46:53.613Z,3.20
2022-11-09T06:51:57.254Z,3.03
2022-11-09T06:57:02.532Z,3.62
2022-11-09T07:02:06.443Z,3.05
2022-11-09T07:07:10.255Z,3.15
2022-11-09T07:12:15.315Z,2.80
2022-11-09T07:17:18.981Z,3.45
2022-11-09T07:22:22.631Z,3.03
2022-11-09T07:27:28.461Z,3.12
2022-11-09T07:38:01.299Z,3.80
2022-11-09T07:43:07.687Z,3.22
2022-11-09T07:48:14.294Z,3.50
2022-11-09T07:53:18.411Z,2.65
2022-11-09T07:58:23.745Z,2.70
2022-11-09T08:03:27.469Z,3.22
2022-11-09T08:08:31.350Z,2.00
2022-11-09T08:13:36.375Z,3.33
2022-11-09T08:18:40.186Z,3.15
2022-11-09T08:23:43.857Z,3.03
2022-11-09T08:28:48.901Z,3.10
2022-11-09T08:33:52.680Z,3.30
2022-11-09T08:38:59.183Z,3.30
2022-11-09T08:44:04.423Z,4.30
2022-11-09T08:49:08.080Z,3.40
2022-11-09T08:54:14.034Z,3.50
2022-11-09T08:59:19.115Z,4.10
2022-11-09T09:04:22.952Z,3.42
2022-11-09T09:09:26.648Z,3.37
2022-11-09T09:14:31.787Z,2.78
2022-11-09T09:19:35.707Z,3.78
2022-11-09T09:24:39.468Z,2.95
2022-11-09T09:29:44.517Z,3.55
2022-11-09T09:34:48.206Z,3.00
2022-11-09T09:39:52.143Z,4.32
2022-11-09T09:45:03.005Z,2.80
2022-11-09T09:50:13.859Z,3.03
2022-11-09T09:55:22.784Z,2.60
2022-11-09T10:00:28.998Z,2.92
2022-11-09T10:05:45.532Z,3.10
2022-11-09T10:11:05.891Z,2.22
2022-11-09T10:16:18.409Z,2.12
2022-11-09T10:21:36.281Z,3.72
2022-11-09T10:26:44.106Z,2.80
2022-11-09T10:31:52.275Z,2.12
2022-11-09T10:37:02.443Z,1.92
2022-11-09T10:42:06.117Z,2.20
2022-11-09T10:47:29.565Z,2.15
2022-11-09T10:52:51.673Z,2.22
2022-11-09T10:58:24.724Z,1.77
2022-11-09T11:03:52.218Z,2.15
2022-11-09T11:09:21.846Z,1.83
2022-11-09T11:14:45.253Z,2.67
2022-11-09T11:20:31.394Z,2.37
2022-11-09T11:26:05.660Z,2.25
2022-11-09T11:31:27.879Z,2.28
2022-11-09T11:37:06.932Z,2.30
2022-11-09T11:43:06.672Z,2.10
2022-11-09T11:48:58.899Z,2.05
2022-11-09T11:54:32.055Z,2.78
2022-11-09T12:00:10.159Z,2.25
2022-11-09T12:06:00.664Z,2.30
2022-11-09T12:11:36.037Z,2.05
2022-11-09T12:17:07.315Z,1.60
2022-11-09T12:22:40.570Z,1.50
2022-11-09T12:28:15.688Z,1.80
2022-11-09T12:33:45.765Z,2.10
2022-11-09T12:39:13.010Z,1.33
2022-11-09T12:44:41.683Z,1.48
2022-11-09T12:50:04.939Z,1.40
2022-11-09T12:55:36.718Z,1.77
2022-11-09T13:01:01.682Z,1.25
2022-11-09T13:06:26.065Z,1.55
2022-11-09T13:11:50.716Z,1.30
2022-11-09T13:17:49.296Z,1.58
2022-11-09T13:23:59.393Z,1.23
2022-11-09T13:29:26.638Z,1.58
2022-11-09T13:34:49.731Z,1.77
2022-11-09T13:40:45.855Z,1.40
2022-11-09T13:46:25.962Z,1.52
2022-11-09T13:51:49.041Z,1.40
2022-11-09T13:57:12.543Z,1.85
2022-11-09T14:02:34.533Z,1.27
2022-11-09T14:07:56.979Z,1.40
2022-11-09T14:13:41.738Z,1.55
2022-11-09T14:19:14.682Z,1.48
2022-11-09T14:24:39.140Z,1.48
2022-11-09T14:30:02.654Z,1.27
2022-11-09T14:35:28.364Z,1.58
2022-11-09T14:40:53.087Z,1.40
2022-11-09T14:46:20.120Z,1.37
2022-11-09T14:51:42.249Z,1.37
2022-11-09T14:57:04.002Z,1.42
2022-11-09T15:02:27.398Z,1.20
2022-11-09T15:07:49.649Z,1.58
2022-11-09T15:13:11.643Z,1.50
2022-11-09T15:18:37.878Z,1.55
2022-11-09T15:24:05.746Z,2.40
2022-11-09T15:29:37.991Z,1.60
2022-11-09T15:35:01.255Z,2.05
2022-11-09T15:40:25.757Z,1.90
2022-11-09T15:45:47.619Z,2.65
2022-11-09T15:51:11.141Z,1.80
2022-11-09T15:56:32.994Z,2.80
2022-11-09T16:01:54.843Z,2.75
2022-11-09T16:07:18.332Z,2.55
2022-11-09T16:12:45.291Z,2.40
2022-11-09T16:18:08.308Z,2.10
2022-11-09T16:23:31.501Z,1.75
2022-11-09T16:28:55.642Z,1.52
2022-11-09T16:34:17.408Z,1.60
2022-11-09T16:39:40.503Z,1.70
2022-11-09T16:45:08.777Z,1.90
2022-11-09T16:55:53.755Z,1.98
2022-11-09T17:01:19.249Z,2.85
2022-11-09T17:12:07.150Z,4.62
2022-11-09T17:17:29.302Z,2.15
2022-11-09T17:22:51.381Z,2.15
2022-11-09T17:28:14.449Z,3.37
2022-11-09T17:33:36.156Z,2.72
2022-11-09T17:38:58.073Z,1.80
2022-11-09T17:44:21.217Z,2.25
2022-11-09T17:49:43.127Z,2.45
2022-11-09T17:55:05.239Z,2.67
2022-11-09T18:00:28.517Z,2.90
2022-11-09T18:05:50.277Z,2.40
2022-11-09T18:11:12.743Z,1.70
2022-11-09T18:16:35.940Z,2.15
2022-11-09T18:22:01.183Z,2.53
2022-11-09T18:27:29.949Z,2.55
2022-11-09T18:32:53.801Z,3.20
2022-11-09T18:38:19.946Z,2.37
2022-11-09T18:43:42.675Z,3.10
2022-11-09T18:49:10.225Z,3.80
2022-11-09T18:54:36.351Z,3.00
2022-11-09T18:59:58.468Z,9.55
2022-11-09T19:05:21.966Z,2.72
2022-11-09T19:10:43.684Z,3.15
2022-11-09T19:16:06.258Z,4.43
2022-11-09T19:21:38.197Z,3.10
2022-11-09T19:27:01.597Z,4.35
2022-11-09T19:32:23.715Z,3.28
2022-11-09T19:37:46.954Z,5.43
2022-11-09T19:43:08.782Z,3.47
2022-11-09T19:48:32.102Z,4.03
2022-11-09T19:53:57.038Z,4.40
2022-11-09T19:59:20.864Z,4.28
2022-11-09T20:04:43.567Z,3.22
2022-11-09T20:10:09.037Z,4.50
2022-11-09T20:15:32.971Z,5.62
2022-11-09T20:20:54.913Z,3.83
2022-11-09T20:26:18.088Z,4.25
2022-11-09T20:31:40.532Z,5.65
2022-11-09T20:37:02.313Z,3.55
2022-11-09T20:42:25.403Z,3.40
2022-11-09T20:48:07.518Z,3.72
2022-11-09T20:53:29.719Z,3.35
2022-11-09T20:58:53.098Z,3.37
2022-11-09T21:04:15.126Z,3.80
2022-11-09T21:09:37.435Z,3.60
2022-11-09T21:15:00.692Z,3.17
2022-11-09T21:20:22.327Z,3.35
2022-11-09T21:26:02.964Z,4.07
2022-11-09T21:31:26.398Z,4.05
2022-11-09T21:36:48.199Z,4.05
2022-11-09T21:42:11.965Z,4.03
2022-11-09T21:47:35.399Z,5.50
2022-11-09T21:52:57.134Z,3.65
2022-11-09T21:58:19.003Z,3.80
2022-11-09T22:03:42.418Z,4.00
2022-11-09T22:09:04.627Z,6.60
2022-11-09T22:14:44.739Z,4.53
2022-11-09T22:20:27.228Z,11.02
2022-11-09T22:25:49.191Z,6.93
2022-11-09T22:31:11.897Z,5.03
2022-11-09T22:36:35.027Z,5.53
2022-11-09T22:41:56.821Z,4.18
2022-11-09T22:47:18.563Z,4.75
2022-11-09T22:52:41.613Z,3.62
2022-11-09T22:58:03.166Z,3.35
2022-11-09T23:03:24.901Z,4.82
2022-11-09T23:08:48.409Z,4.50
2022-11-09T23:14:10.779Z,4.10
2022-11-09T23:19:32.611Z,4.80
2022-11-09T23:25:12.976Z,4.95
2022-11-09T23:30:34.958Z,3.95
2022-11-09T23:35:57.352Z,3.85
2022-11-09T23:41:20.760Z,4.15
2022-11-09T23:46:42.732Z,3.30
2022-11-09T23:52:04.627Z,4.00
2022-11-09T23:57:29.074Z,4.62
